createdAt,value
2018-02-10T00:00:43.217Z,28.20
2018-02-10T00:05:46.292Z,28.30
2018-02-10T00:10:49.791Z,26.53
2018-02-10T00:15:53.692Z,28.50
2018-02-10T00:20:57.910Z,28.77
2018-02-10T00:26:02.371Z,28.10
2018-02-10T00:31:06.639Z,26.87
2018-02-10T00:36:11.115Z,26.13
2018-02-10T00:41:15.285Z,30.43
2018-02-10T00:46:18.804Z,28.23
2018-02-10T00:51:23.254Z,29.50
2018-02-10T00:56:27.165Z,27.00
2018-02-10T01:01:31.403Z,26.43
2018-02-10T01:06:34.925Z,28.67
2018-02-10T01:11:39.163Z,28.17
2018-02-10T01:16:43.083Z,27.70
2018-02-10T01:21:46.931Z,27.43
2018-02-10T01:26:50.831Z,29.87
2018-02-10T01:31:55.087Z,27.67
2018-02-10T01:36:58.952Z,28.90
2018-02-10T01:42:02.422Z,30.47
2018-02-10T01:47:05.891Z,31.80
2018-02-10T01:52:10.331Z,37.03
2018-02-10T01:57:14.800Z,34.63
2018-02-10T02:02:18.259Z,32.77
2018-02-10T02:07:22.737Z,37.63
2018-02-10T02:12:26.212Z,38.20
2018-02-10T02:17:29.330Z,39.43
2018-02-10T02:22:32.415Z,36.83
2018-02-10T02:27:37.105Z,35.97
2018-02-10T02:32:40.191Z,38.73
2018-02-10T02:37:44.087Z,38.37
2018-02-10T02:42:48.526Z,38.47
2018-02-10T02:47:52.435Z,38.30
2018-02-10T02:52:57.025Z,38.53
2018-02-10T02:58:00.155Z,34.93
2018-02-10T03:03:03.639Z,39.90
2018-02-10T03:08:07.515Z,40.77
2018-02-10T03:13:11.355Z,42.53
2018-02-10T03:18:14.484Z,42.63
2018-02-10T03:23:19.082Z,42.03
2018-02-10T03:28:22.175Z,39.10
2018-02-10T03:33:26.614Z,37.60
2018-02-10T03:38:29.714Z,40.85
2018-02-10T03:43:32.865Z,39.17
2018-02-10T03:48:35.959Z,40.67
2018-02-10T03:53:39.803Z,39.07
2018-02-10T03:58:42.921Z,41.97
2018-02-10T04:03:46.007Z,38.38
2018-02-10T04:08:50.641Z,39.87
2018-02-10T04:13:54.507Z,39.10
2018-02-10T04:18:57.595Z,33.60
2018-02-10T04:24:02.426Z,35.67
2018-02-10T04:29:07.076Z,37.73
2018-02-10T04:34:10.591Z,37.80
2018-02-10T04:39:15.039Z,35.13
2018-02-10T04:44:18.547Z,38.40
2018-02-10T04:49:22.416Z,36.47
2018-02-10T04:54:25.499Z,37.37
2018-02-10T04:59:28.627Z,38.30
2018-02-10T05:04:31.734Z,38.97
2018-02-10T05:09:35.255Z,35.53
2018-02-10T05:14:39.687Z,36.60
2018-02-10T05:19:44.171Z,37.23
2018-02-10T05:24:48.753Z,37.00
2018-02-10T05:29:52.196Z,35.10
2018-02-10T05:34:55.683Z,37.30
2018-02-10T05:40:00.141Z,37.57
2018-02-10T05:45:03.659Z,36.73
2018-02-10T05:50:06.759Z,36.77
2018-02-10T05:55:10.652Z,36.97
2018-02-10T06:00:15.100Z,28.43
2018-02-10T06:05:18.982Z,36.67
2018-02-10T06:10:23.449Z,37.07
2018-02-10T06:15:26.928Z,35.40
2018-02-10T06:20:30.815Z,36.97
2018-02-10T06:25:35.299Z,34.60
2018-02-10T06:30:39.929Z,36.53
2018-02-10T06:35:43.815Z,35.67
2018-02-10T06:40:47.120Z,35.40
2018-02-10T06:45:50.995Z,35.45
2018-02-10T06:50:54.883Z,38.10
2018-02-10T06:55:57.988Z,34.97
2018-02-10T07:01:01.127Z,36.53
2018-02-10T07:06:04.211Z,34.50
2018-02-10T07:11:09.429Z,33.03
2018-02-10T07:16:13.301Z,32.43
2018-02-10T07:21:17.848Z,32.03
2018-02-10T07:26:22.435Z,36.43
2018-02-10T07:31:26.867Z,34.20
2018-02-10T07:36:30.356Z,35.00
2018-02-10T07:41:33.463Z,37.13
2018-02-10T07:46:37.063Z,36.83
2018-02-10T07:51:40.168Z,33.63
2018-02-10T07:56:43.257Z,33.47
2018-02-10T08:01:47.738Z,41.40
2018-02-10T08:06:51.648Z,30.87
2018-02-10T08:11:55.545Z,30.20
2018-02-10T08:16:59.805Z,37.80
2018-02-10T08:22:04.811Z,31.73
2018-02-10T08:27:09.473Z,35.93
2018-02-10T08:32:13.923Z,42.87
2018-02-10T08:37:17.016Z,34.27
2018-02-10T08:42:20.887Z,31.10
2018-02-10T08:47:24.412Z,28.57
2018-02-10T08:52:28.851Z,31.63
2018-02-10T08:57:32.844Z,28.85
2018-02-10T09:02:36.688Z,30.13
2018-02-10T09:07:41.317Z,29.50
2018-02-10T09:12:45.760Z,29.13
2018-02-10T09:17:49.279Z,25.13
2018-02-10T09:22:54.292Z,24.00
2018-02-10T09:27:57.845Z,24.90
2018-02-10T09:33:02.316Z,22.93
2018-02-10T09:38:06.795Z,26.27
2018-02-10T09:43:11.041Z,21.53
2018-02-10T09:48:15.654Z,21.90
2018-02-10T09:53:19.877Z,21.40
2018-02-10T09:58:23.357Z,21.50
2018-02-10T10:03:27.867Z,19.87
2018-02-10T10:08:31.715Z,18.70
2018-02-10T10:13:35.574Z,19.73
2018-02-10T10:18:38.704Z,18.43
2018-02-10T10:23:41.794Z,19.07
2018-02-10T10:28:44.963Z,18.73
2018-02-10T10:33:49.403Z,32.77
2018-02-10T10:38:52.898Z,17.67
2018-02-10T10:43:57.344Z,18.43
2018-02-10T10:49:00.874Z,22.80
2018-02-10T10:54:05.344Z,17.67
2018-02-10T10:59:09.015Z,18.73
2018-02-10T11:04:12.993Z,16.83
2018-02-10T11:09:16.855Z,19.30
2018-02-10T11:14:21.282Z,17.23
2018-02-10T11:19:25.168Z,16.20
2018-02-10T11:24:29.654Z,16.75
2018-02-10T11:29:33.528Z,17.57
2018-02-10T11:34:36.612Z,16.87
2018-02-10T11:39:41.059Z,15.20
2018-02-10T11:44:44.567Z,18.00
2018-02-10T11:49:47.656Z,15.33
2018-02-10T11:54:52.115Z,16.83
2018-02-10T11:59:55.595Z,14.03
2018-02-10T12:04:59.812Z,15.10
2018-02-10T12:10:02.968Z,14.03
2018-02-10T12:15:06.835Z,13.83
2018-02-10T12:20:09.935Z,15.27
2018-02-10T12:25:13.412Z,13.37
2018-02-10T12:30:16.927Z,15.67
2018-02-10T12:35:21.165Z,16.30
2018-02-10T12:40:25.019Z,16.27
2018-02-10T12:45:28.096Z,17.70
2018-02-10T12:50:31.631Z,17.03
2018-02-10T12:55:35.125Z,15.47
2018-02-10T13:00:39.587Z,14.03
2018-02-10T13:05:42.699Z,14.17
2018-02-10T13:10:47.333Z,16.90
2018-02-10T13:15:51.765Z,15.77
2018-02-10T13:20:55.260Z,16.33
2018-02-10T13:25:59.510Z,15.47
2018-02-10T13:31:03.351Z,15.23
2018-02-10T13:36:07.791Z,13.35
2018-02-10T13:41:12.263Z,9.00
2018-02-10T13:46:16.694Z,10.40
2018-02-10T13:51:20.524Z,8.53
2018-02-10T13:56:23.599Z,9.80
2018-02-10T14:01:27.165Z,20.53
2018-02-10T14:06:30.676Z,9.50
2018-02-10T14:11:35.334Z,8.13
2018-02-10T14:16:39.605Z,8.80
2018-02-10T14:21:43.075Z,11.20
2018-02-10T14:26:47.587Z,8.53
2018-02-10T14:31:51.442Z,9.07
2018-02-10T14:36:55.923Z,18.47
2018-02-10T14:42:00.502Z,8.83
2018-02-10T14:47:04.244Z,8.98
2018-02-10T14:52:08.682Z,8.03
2018-02-10T14:57:13.163Z,8.30
2018-02-10T15:02:17.339Z,9.83
2018-02-10T15:07:21.795Z,9.03
2018-02-10T15:12:26.231Z,10.30
2018-02-10T15:17:30.725Z,14.90
2018-02-10T15:22:34.263Z,15.63
2018-02-10T15:27:37.736Z,16.93
2018-02-10T15:32:59.519Z,16.93
2018-02-10T15:38:02.606Z,18.77
2018-02-10T15:43:07.035Z,18.80
2018-02-10T15:48:11.641Z,17.62
2018-02-10T15:53:15.863Z,20.67
2018-02-10T15:58:19.725Z,16.93
2018-02-10T16:03:24.165Z,19.90
2018-02-10T16:08:28.602Z,21.50
2018-02-10T16:13:32.825Z,22.90
2018-02-10T16:18:37.611Z,21.33
2018-02-10T16:23:41.837Z,20.43
2018-02-10T16:28:46.058Z,18.93
2018-02-10T16:33:50.512Z,20.70
2018-02-10T16:38:55.104Z,18.17
2018-02-10T16:43:58.182Z,20.73
2018-02-10T16:49:01.304Z,16.93
2018-02-10T16:54:05.743Z,14.53
2018-02-10T16:59:10.166Z,17.70
2018-02-10T17:04:14.774Z,19.12
2018-02-10T17:09:18.257Z,17.03
2018-02-10T17:14:22.141Z,20.20
2018-02-10T17:19:25.951Z,19.57
2018-02-10T17:24:29.059Z,16.73
2018-02-10T17:29:33.496Z,19.67
2018-02-10T17:34:38.079Z,19.07
2018-02-10T17:39:41.161Z,21.77
2018-02-10T17:44:45.594Z,20.00
2018-02-10T17:49:48.678Z,20.73
2018-02-10T17:54:53.172Z,21.20
2018-02-10T17:59:56.663Z,29.47
2018-02-10T18:05:01.112Z,25.90
2018-02-10T18:10:05.698Z,23.27
2018-02-10T18:15:08.783Z,22.03
2018-02-10T18:20:12.631Z,24.97
2018-02-10T18:25:15.719Z,27.23
2018-02-10T18:30:18.826Z,25.07
2018-02-10T18:35:21.907Z,24.27
2018-02-10T18:40:24.988Z,23.33
2018-02-10T18:45:29.585Z,23.17
2018-02-10T18:50:32.680Z,20.23
2018-02-10T18:55:35.763Z,21.57
2018-02-10T19:00:39.604Z,24.17
2018-02-10T19:05:42.733Z,19.37
2018-02-10T19:10:45.811Z,23.13
2018-02-10T19:15:50.244Z,13.23
2018-02-10T19:20:53.737Z,12.63
2018-02-10T19:25:56.811Z,13.10
2018-02-10T19:31:01.271Z,14.27
2018-02-10T19:36:05.483Z,17.77
2018-02-10T19:41:08.966Z,13.73
2018-02-10T19:46:12.800Z,11.70
2018-02-10T19:51:15.876Z,9.67
2018-02-10T19:56:19.512Z,8.80
2018-02-10T20:01:23.002Z,8.07
2018-02-10T20:06:26.976Z,6.93
2018-02-10T20:11:30.067Z,7.03
2018-02-10T20:16:33.904Z,9.03
2018-02-10T20:21:36.981Z,7.57
2018-02-10T20:26:40.115Z,8.00
2018-02-10T20:31:43.892Z,8.33
2018-02-10T20:36:48.165Z,7.07
2018-02-10T20:41:51.258Z,7.43
2018-02-10T20:46:55.689Z,9.03
2018-02-10T20:52:00.324Z,8.13
2018-02-10T20:57:05.870Z,6.60
2018-02-10T21:02:09.755Z,7.27
2018-02-10T21:07:12.895Z,7.97
2018-02-10T21:12:17.553Z,5.80
2018-02-10T21:17:22.050Z,8.13
2018-02-10T21:22:26.639Z,6.60
2018-02-10T21:27:30.872Z,5.37
2018-02-10T21:32:35.313Z,6.17
2018-02-10T21:37:39.956Z,5.27
2018-02-10T21:42:44.398Z,9.03
2018-02-10T21:47:48.306Z,7.73
2018-02-10T21:52:52.150Z,6.17
2018-02-10T21:57:56.787Z,6.13
2018-02-10T22:03:01.272Z,7.37
2018-02-10T22:08:05.500Z,8.27
2018-02-10T22:13:09.011Z,8.48
2018-02-10T22:18:12.088Z,7.70
2018-02-10T22:23:16.547Z,7.20
2018-02-10T22:28:21.140Z,7.10
2018-02-10T22:33:24.244Z,8.10
2018-02-10T22:38:28.095Z,6.43
2018-02-10T22:43:31.611Z,7.97
2018-02-10T22:48:35.193Z,7.45
2018-02-10T22:53:38.647Z,8.10
2018-02-10T22:58:42.143Z,6.10
2018-02-10T23:03:45.251Z,5.90
2018-02-10T23:08:49.678Z,5.93
2018-02-10T23:13:53.942Z,8.27
2018-02-10T23:18:58.151Z,8.57
2018-02-10T23:24:02.401Z,9.67
2018-02-10T23:29:06.240Z,8.63
2018-02-10T23:34:10.715Z,9.13
2018-02-10T23:39:15.140Z,7.60
2018-02-10T23:44:19.397Z,7.97
2018-02-10T23:49:23.831Z,11.37
2018-02-10T23:54:28.433Z,8.07
2018-02-10T23:59:32.868Z,7.47
